sensor_id;sensor_type;location;lat;lon;timestamp;P1;durP1;ratioP1;P2;durP2;ratioP2
23730;SDS011;12046;44.702;10.622;2022-08-19T00:00:26;10.80;;;9.70;;
23730;SDS011;12046;44.702;10.622;2022-08-19T00:02:53;12.20;;;10.90;;
23730;SDS011;12046;44.702;10.622;2022-08-19T00:05:19;10.48;;;9.43;;
23730;SDS011;12046;44.702;10.622;2022-08-19T00:07:46;14.15;;;9.82;;
23730;SDS011;12046;44.702;10.622;2022-08-19T00:10:14;12.40;;;10.35;;
23730;SDS011;12046;44.702;10.622;2022-08-19T00:12:41;12.68;;;11.07;;
23730;SDS011;12046;44.702;10.622;2022-08-19T00:15:09;11.15;;;9.95;;
23730;SDS011;12046;44.702;10.622;2022-08-19T00:17:41;12.13;;;10.40;;
23730;SDS011;12046;44.702;10.622;2022-08-19T00:20:09;12.02;;;10.43;;
23730;SDS011;12046;44.702;10.622;2022-08-19T00:22:36;10.93;;;9.82;;
23730;SDS011;12046;44.702;10.622;2022-08-19T00:25:04;11.10;;;9.90;;
23730;SDS011;12046;44.702;10.622;2022-08-19T00:27:31;12.93;;;10.10;;
23730;SDS011;12046;44.702;10.622;2022-08-19T00:29:57;12.40;;;10.05;;
23730;SDS011;12046;44.702;10.622;2022-08-19T00:32:24;11.05;;;10.00;;
23730;SDS011;12046;44.702;10.622;2022-08-19T00:34:51;11.95;;;10.63;;
23730;SDS011;12046;44.702;10.622;2022-08-19T00:37:18;11.35;;;10.15;;
23730;SDS011;12046;44.702;10.622;2022-08-19T00:39:47;10.73;;;9.63;;
23730;SDS011;12046;44.702;10.622;2022-08-19T00:42:14;12.88;;;10.10;;
23730;SDS011;12046;44.702;10.622;2022-08-19T00:44:40;10.90;;;9.80;;
23730;SDS011;12046;44.702;10.622;2022-08-19T00:47:06;11.43;;;10.15;;
23730;SDS011;12046;44.702;10.622;2022-08-19T00:49:34;10.68;;;9.43;;
23730;SDS011;12046;44.702;10.622;2022-08-19T00:52:04;10.90;;;9.80;;
23730;SDS011;12046;44.702;10.622;2022-08-19T00:54:35;10.80;;;9.10;;
23730;SDS011;12046;44.702;10.622;2022-08-19T00:57:03;9.65;;;8.75;;
23730;SDS011;12046;44.702;10.622;2022-08-19T00:59:33;9.30;;;8.23;;
23730;SDS011;12046;44.702;10.622;2022-08-19T01:02:02;15.35;;;10.82;;
23730;SDS011;12046;44.702;10.622;2022-08-19T01:04:28;10.85;;;9.82;;
23730;SDS011;12046;44.702;10.622;2022-08-19T01:06:55;11.45;;;10.25;;
23730;SDS011;12046;44.702;10.622;2022-08-19T01:09:21;10.55;;;9.38;;
23730;SDS011;12046;44.702;10.622;2022-08-19T01:11:47;10.65;;;9.40;;
23730;SDS011;12046;44.702;10.622;2022-08-19T01:14:13;10.93;;;9.82;;
23730;SDS011;12046;44.702;10.622;2022-08-19T01:16:40;14.52;;;10.35;;
23730;SDS011;12046;44.702;10.622;2022-08-19T01:19:09;13.13;;;10.55;;
23730;SDS011;12046;44.702;10.622;2022-08-19T01:21:45;11.73;;;10.40;;
23730;SDS011;12046;44.702;10.622;2022-08-19T01:24:17;12.27;;;10.50;;
23730;SDS011;12046;44.702;10.622;2022-08-19T01:26:43;15.90;;;12.00;;
23730;SDS011;12046;44.702;10.622;2022-08-19T01:29:11;12.38;;;11.25;;
23730;SDS011;12046;44.702;10.622;2022-08-19T01:31:37;16.52;;;12.40;;
23730;SDS011;12046;44.702;10.622;2022-08-19T01:34:04;13.20;;;11.85;;
23730;SDS011;12046;44.702;10.622;2022-08-19T01:36:35;15.70;;;12.70;;
23730;SDS011;12046;44.702;10.622;2022-08-19T01:39:08;13.43;;;12.02;;
23730;SDS011;12046;44.702;10.622;2022-08-19T01:41:37;14.00;;;12.63;;
23730;SDS011;12046;44.702;10.622;2022-08-19T01:44:04;14.45;;;12.95;;
23730;SDS011;12046;44.702;10.622;2022-08-19T01:46:31;15.75;;;13.68;;
23730;SDS011;12046;44.702;10.622;2022-08-19T01:48:57;14.88;;;13.25;;
23730;SDS011;12046;44.702;10.622;2022-08-19T01:51:24;16.08;;;12.60;;
23730;SDS011;12046;44.702;10.622;2022-08-19T01:53:50;16.42;;;13.43;;
23730;SDS011;12046;44.702;10.622;2022-08-19T01:56:17;19.05;;;14.23;;
23730;SDS011;12046;44.702;10.622;2022-08-19T01:58:45;15.38;;;12.68;;
23730;SDS011;12046;44.702;10.622;2022-08-19T02:01:16;14.95;;;11.88;;
23730;SDS011;12046;44.702;10.622;2022-08-19T02:03:42;15.75;;;13.65;;
23730;SDS011;12046;44.702;10.622;2022-08-19T02:06:08;13.85;;;9.80;;
23730;SDS011;12046;44.702;10.622;2022-08-19T02:08:35;12.25;;;9.05;;
23730;SDS011;12046;44.702;10.622;2022-08-19T02:11:03;6.88;;;5.72;;
23730;SDS011;12046;44.702;10.622;2022-08-19T02:13:30;6.47;;;4.45;;
23730;SDS011;12046;44.702;10.622;2022-08-19T02:15:56;6.82;;;3.58;;
23730;SDS011;12046;44.702;10.622;2022-08-19T02:18:23;4.65;;;2.75;;
23730;SDS011;12046;44.702;10.622;2022-08-19T02:20:49;6.18;;;2.58;;
23730;SDS011;12046;44.702;10.622;2022-08-19T02:23:15;4.80;;;2.85;;
23730;SDS011;12046;44.702;10.622;2022-08-19T02:25:48;7.65;;;2.55;;
23730;SDS011;12046;44.702;10.622;2022-08-19T02:28:14;4.90;;;2.92;;
23730;SDS011;12046;44.702;10.622;2022-08-19T02:30:40;8.20;;;3.35;;
23730;SDS011;12046;44.702;10.622;2022-08-19T02:33:08;8.20;;;3.10;;
23730;SDS011;12046;44.702;10.622;2022-08-19T02:35:33;4.65;;;3.10;;
23730;SDS011;12046;44.702;10.622;2022-08-19T02:37:59;7.78;;;3.85;;
23730;SDS011;12046;44.702;10.622;2022-08-19T02:40:48;8.55;;;4.25;;
23730;SDS011;12046;44.702;10.622;2022-08-19T02:43:16;6.75;;;4.75;;
23730;SDS011;12046;44.702;10.622;2022-08-19T02:45:42;8.38;;;5.20;;
23730;SDS011;12046;44.702;10.622;2022-08-19T02:48:08;8.30;;;4.35;;
23730;SDS011;12046;44.702;10.622;2022-08-19T02:50:37;8.15;;;4.25;;
23730;SDS011;12046;44.702;10.622;2022-08-19T02:53:04;8.20;;;4.50;;
23730;SDS011;12046;44.702;10.622;2022-08-19T02:55:32;8.80;;;5.60;;
23730;SDS011;12046;44.702;10.622;2022-08-19T02:57:58;8.95;;;5.82;;
23730;SDS011;12046;44.702;10.622;2022-08-19T03:00:25;8.63;;;6.22;;
23730;SDS011;12046;44.702;10.622;2022-08-19T03:02:52;8.93;;;6.43;;
23730;SDS011;12046;44.702;10.622;2022-08-19T03:05:18;8.68;;;6.57;;
23730;SDS011;12046;44.702;10.622;2022-08-19T03:07:44;8.48;;;5.32;;
23730;SDS011;12046;44.702;10.622;2022-08-19T03:10:11;5.35;;;4.13;;
23730;SDS011;12046;44.702;10.622;2022-08-19T03:12:38;8.77;;;4.32;;
23730;SDS011;12046;44.702;10.622;2022-08-19T03:15:05;5.85;;;3.60;;
23730;SDS011;12046;44.702;10.622;2022-08-19T03:17:32;4.65;;;2.53;;
23730;SDS011;12046;44.702;10.622;2022-08-19T03:19:59;5.13;;;1.73;;
23730;SDS011;12046;44.702;10.622;2022-08-19T03:22:26;4.82;;;2.05;;
23730;SDS011;12046;44.702;10.622;2022-08-19T03:24:51;4.20;;;2.00;;
23730;SDS011;12046;44.702;10.622;2022-08-19T03:27:18;3.80;;;1.88;;
23730;SDS011;12046;44.702;10.622;2022-08-19T03:29:44;3.25;;;1.77;;
23730;SDS011;12046;44.702;10.622;2022-08-19T03:32:11;3.65;;;1.27;;
23730;SDS011;12046;44.702;10.622;2022-08-19T03:34:37;4.85;;;1.58;;
23730;SDS011;12046;44.702;10.622;2022-08-19T03:37:05;5.22;;;1.70;;
23730;SDS011;12046;44.702;10.622;2022-08-19T03:39:33;1.98;;;1.10;;
23730;SDS011;12046;44.702;10.622;2022-08-19T03:42:02;2.75;;;1.23;;
23730;SDS011;12046;44.702;10.622;2022-08-19T03:44:29;1.83;;;1.20;;
23730;SDS011;12046;44.702;10.622;2022-08-19T03:46:56;6.78;;;1.73;;
23730;SDS011;12046;44.702;10.622;2022-08-19T03:49:23;4.60;;;1.95;;
23730;SDS011;12046;44.702;10.622;2022-08-19T03:51:52;3.15;;;1.67;;
23730;SDS011;12046;44.702;10.622;2022-08-19T03:54:20;3.53;;;1.98;;
23730;SDS011;12046;44.702;10.622;2022-08-19T03:56:51;2.30;;;1.60;;
23730;SDS011;12046;44.702;10.622;2022-08-19T03:59:28;2.97;;;1.90;;
23730;SDS011;12046;44.702;10.622;2022-08-19T04:02:01;5.00;;;1.90;;
23730;SDS011;12046;44.702;10.622;2022-08-19T04:04:30;6.93;;;2.08;;
23730;SDS011;12046;44.702;10.622;2022-08-19T04:07:01;4.90;;;1.83;;
23730;SDS011;12046;44.702;10.622;2022-08-19T04:09:27;2.65;;;1.85;;
23730;SDS011;12046;44.702;10.622;2022-08-19T04:11:54;3.38;;;1.80;;
23730;SDS011;12046;44.702;10.622;2022-08-19T04:14:22;4.07;;;1.83;;
23730;SDS011;12046;44.702;10.622;2022-08-19T04:16:51;6.70;;;2.13;;
23730;SDS011;12046;44.702;10.622;2022-08-19T04:19:18;4.90;;;2.60;;
23730;SDS011;12046;44.702;10.622;2022-08-19T04:21:45;7.25;;;1.88;;
23730;SDS011;12046;44.702;10.622;2022-08-19T04:24:15;4.45;;;2.05;;
23730;SDS011;12046;44.702;10.622;2022-08-19T04:26:41;2.33;;;1.70;;
23730;SDS011;12046;44.702;10.622;2022-08-19T04:29:10;7.13;;;1.83;;
23730;SDS011;12046;44.702;10.622;2022-08-19T04:31:37;5.18;;;1.98;;
23730;SDS011;12046;44.702;10.622;2022-08-19T04:34:05;3.50;;;1.70;;
23730;SDS011;12046;44.702;10.622;2022-08-19T04:36:34;4.15;;;2.00;;
23730;SDS011;12046;44.702;10.622;2022-08-19T04:39:03;4.53;;;1.98;;
23730;SDS011;12046;44.702;10.622;2022-08-19T04:41:32;3.78;;;1.40;;
23730;SDS011;12046;44.702;10.622;2022-08-19T04:44:17;4.43;;;1.60;;
23730;SDS011;12046;44.702;10.622;2022-08-19T04:46:44;3.17;;;1.35;;
23730;SDS011;12046;44.702;10.622;2022-08-19T04:49:12;4.22;;;2.00;;
23730;SDS011;12046;44.702;10.622;2022-08-19T04:51:40;4.97;;;1.65;;
23730;SDS011;12046;44.702;10.622;2022-08-19T04:54:07;3.60;;;1.95;;
23730;SDS011;12046;44.702;10.622;2022-08-19T04:56:34;4.50;;;2.17;;
23730;SDS011;12046;44.702;10.622;2022-08-19T04:59:00;2.63;;;1.25;;
23730;SDS011;12046;44.702;10.622;2022-08-19T05:01:29;2.00;;;0.90;;
23730;SDS011;12046;44.702;10.622;2022-08-19T05:03:58;3.90;;;1.30;;
23730;SDS011;12046;44.702;10.622;2022-08-19T05:09:38;4.90;;;1.60;;
23730;SDS011;12046;44.702;10.622;2022-08-19T05:12:05;3.40;;;1.10;;
23730;SDS011;12046;44.702;10.622;2022-08-19T05:14:31;4.38;;;1.13;;
23730;SDS011;12046;44.702;10.622;2022-08-19T05:16:57;3.30;;;1.25;;
23730;SDS011;12046;44.702;10.622;2022-08-19T05:19:23;5.38;;;1.00;;
23730;SDS011;12046;44.702;10.622;2022-08-19T05:22:08;3.38;;;1.10;;
23730;SDS011;12046;44.702;10.622;2022-08-19T05:24:52;4.95;;;1.35;;
23730;SDS011;12046;44.702;10.622;2022-08-19T05:27:18;2.53;;;0.90;;
23730;SDS011;12046;44.702;10.622;2022-08-19T05:29:44;2.63;;;0.73;;
23730;SDS011;12046;44.702;10.622;2022-08-19T05:32:10;2.22;;;0.90;;
23730;SDS011;12046;44.702;10.622;2022-08-19T05:34:36;2.65;;;0.70;;
23730;SDS011;12046;44.702;10.622;2022-08-19T05:37:03;3.38;;;0.70;;
23730;SDS011;12046;44.702;10.622;2022-08-19T05:39:31;1.42;;;0.93;;
23730;SDS011;12046;44.702;10.622;2022-08-19T05:42:00;4.63;;;0.50;;
23730;SDS011;12046;44.702;10.622;2022-08-19T05:44:30;1.27;;;0.63;;
23730;SDS011;12046;44.702;10.622;2022-08-19T05:46:57;2.53;;;0.75;;
23730;SDS011;12046;44.702;10.622;2022-08-19T05:49:25;2.72;;;0.63;;
23730;SDS011;12046;44.702;10.622;2022-08-19T05:51:52;1.98;;;0.73;;
23730;SDS011;12046;44.702;10.622;2022-08-19T05:54:20;1.25;;;0.77;;
23730;SDS011;12046;44.702;10.622;2022-08-19T05:56:49;4.13;;;0.80;;
23730;SDS011;12046;44.702;10.622;2022-08-19T05:59:17;3.33;;;0.75;;
23730;SDS011;12046;44.702;10.622;2022-08-19T06:01:45;0.65;;;0.30;;
23730;SDS011;12046;44.702;10.622;2022-08-19T06:04:15;1.27;;;0.35;;
23730;SDS011;12046;44.702;10.622;2022-08-19T06:06:43;0.73;;;0.35;;
23730;SDS011;12046;44.702;10.622;2022-08-19T06:09:10;1.25;;;0.40;;
23730;SDS011;12046;44.702;10.622;2022-08-19T06:11:41;0.80;;;0.40;;
23730;SDS011;12046;44.702;10.622;2022-08-19T06:14:16;1.27;;;0.32;;
23730;SDS011;12046;44.702;10.622;2022-08-19T06:16:44;1.02;;;0.25;;
23730;SDS011;12046;44.702;10.622;2022-08-19T06:19:16;1.70;;;0.52;;
23730;SDS011;12046;44.702;10.622;2022-08-19T06:21:45;3.22;;;0.32;;
23730;SDS011;12046;44.702;10.622;2022-08-19T06:24:15;1.45;;;0.43;;
23730;SDS011;12046;44.702;10.622;2022-08-19T06:26:43;2.08;;;0.70;;
23730;SDS011;12046;44.702;10.622;2022-08-19T06:29:12;0.50;;;0.47;;
23730;SDS011;12046;44.702;10.622;2022-08-19T06:31:43;3.00;;;0.70;;
23730;SDS011;12046;44.702;10.622;2022-08-19T06:34:11;1.50;;;0.57;;
23730;SDS011;12046;44.702;10.622;2022-08-19T06:36:39;2.15;;;0.80;;
23730;SDS011;12046;44.702;10.622;2022-08-19T06:39:09;1.88;;;1.27;;
23730;SDS011;12046;44.702;10.622;2022-08-19T06:41:44;1.58;;;0.88;;
23730;SDS011;12046;44.702;10.622;2022-08-19T06:44:12;1.40;;;0.57;;
23730;SDS011;12046;44.702;10.622;2022-08-19T06:46:39;2.67;;;0.75;;
23730;SDS011;12046;44.702;10.622;2022-08-19T06:49:06;0.55;;;0.30;;
23730;SDS011;12046;44.702;10.622;2022-08-19T06:51:42;2.40;;;0.60;;
23730;SDS011;12046;44.702;10.622;2022-08-19T06:54:12;1.58;;;0.45;;
23730;SDS011;12046;44.702;10.622;2022-08-19T06:56:39;1.13;;;0.60;;
23730;SDS011;12046;44.702;10.622;2022-08-19T06:59:07;1.27;;;0.30;;
23730;SDS011;12046;44.702;10.622;2022-08-19T07:01:36;1.23;;;0.22;;
23730;SDS011;12046;44.702;10.622;2022-08-19T07:04:03;0.88;;;0.30;;
23730;SDS011;12046;44.702;10.622;2022-08-19T07:06:31;0.75;;;0.55;;
23730;SDS011;12046;44.702;10.622;2022-08-19T07:08:57;0.88;;;0.30;;
23730;SDS011;12046;44.702;10.622;2022-08-19T07:11:23;0.55;;;0.25;;
23730;SDS011;12046;44.702;10.622;2022-08-19T07:13:49;1.48;;;0.40;;
23730;SDS011;12046;44.702;10.622;2022-08-19T07:16:17;2.95;;;0.40;;
23730;SDS011;12046;44.702;10.622;2022-08-19T07:18:45;1.77;;;0.45;;
23730;SDS011;12046;44.702;10.622;2022-08-19T07:21:16;1.13;;;0.32;;
23730;SDS011;12046;44.702;10.622;2022-08-19T07:23:49;0.80;;;0.35;;
23730;SDS011;12046;44.702;10.622;2022-08-19T07:26:18;1.83;;;0.45;;
23730;SDS011;12046;44.702;10.622;2022-08-19T07:28:49;0.98;;;0.30;;
23730;SDS011;12046;44.702;10.622;2022-08-19T07:31:16;0.40;;;0.30;;
23730;SDS011;12046;44.702;10.622;2022-08-19T07:33:45;0.45;;;0.30;;
23730;SDS011;12046;44.702;10.622;2022-08-19T07:36:13;1.48;;;0.40;;
23730;SDS011;12046;44.702;10.622;2022-08-19T07:38:43;1.40;;;0.45;;
23730;SDS011;12046;44.702;10.622;2022-08-19T07:41:11;0.80;;;0.30;;
23730;SDS011;12046;44.702;10.622;2022-08-19T07:43:38;0.80;;;0.30;;
23730;SDS011;12046;44.702;10.622;2022-08-19T07:46:05;0.20;;;0.20;;
23730;SDS011;12046;44.702;10.622;2022-08-19T07:48:32;0.50;;;0.10;;
23730;SDS011;12046;44.702;10.622;2022-08-19T07:50:59;2.03;;;0.30;;
23730;SDS011;12046;44.702;10.622;2022-08-19T07:53:28;0.20;;;0.20;;
23730;SDS011;12046;44.702;10.622;2022-08-19T07:55:55;1.67;;;0.40;;
23730;SDS011;12046;44.702;10.622;2022-08-19T07:58:25;2.05;;;0.25;;
23730;SDS011;12046;44.702;10.622;2022-08-19T08:00:52;1.08;;;0.20;;
23730;SDS011;12046;44.702;10.622;2022-08-19T08:03:19;0.47;;;0.20;;
23730;SDS011;12046;44.702;10.622;2022-08-19T08:06:06;0.85;;;0.30;;
23730;SDS011;12046;44.702;10.622;2022-08-19T08:08:51;0.73;;;0.30;;
23730;SDS011;12046;44.702;10.622;2022-08-19T08:11:57;0.90;;;0.30;;
23730;SDS011;12046;44.702;10.622;2022-08-19T08:14:43;1.00;;;0.30;;
23730;SDS011;12046;44.702;10.622;2022-08-19T08:17:13;0.43;;;0.20;;
23730;SDS011;12046;44.702;10.622;2022-08-19T08:19:44;0.32;;;0.10;;
23730;SDS011;12046;44.702;10.622;2022-08-19T08:22:12;0.10;;;0.10;;
23730;SDS011;12046;44.702;10.622;2022-08-19T08:25:06;0.30;;;0.20;;
23730;SDS011;12046;44.702;10.622;2022-08-19T08:27:38;0.25;;;0.20;;
23730;SDS011;12046;44.702;10.622;2022-08-19T08:30:08;0.60;;;0.40;;
23730;SDS011;12046;44.702;10.622;2022-08-19T08:32:42;0.77;;;0.40;;
23730;SDS011;12046;44.702;10.622;2022-08-19T08:35:09;0.47;;;0.28;;
23730;SDS011;12046;44.702;10.622;2022-08-19T08:37:40;0.45;;;0.20;;
23730;SDS011;12046;44.702;10.622;2022-08-19T08:40:09;0.70;;;0.30;;
23730;SDS011;12046;44.702;10.622;2022-08-19T08:42:52;1.27;;;0.40;;
23730;SDS011;12046;44.702;10.622;2022-08-19T08:45:40;1.63;;;0.40;;
23730;SDS011;12046;44.702;10.622;2022-08-19T08:48:16;1.45;;;0.40;;
23730;SDS011;12046;44.702;10.622;2022-08-19T08:50:47;0.22;;;0.22;;
23730;SDS011;12046;44.702;10.622;2022-08-19T08:53:16;1.52;;;0.40;;
23730;SDS011;12046;44.702;10.622;2022-08-19T08:55:44;1.10;;;0.50;;
23730;SDS011;12046;44.702;10.622;2022-08-19T08:58:13;0.90;;;0.47;;
23730;SDS011;12046;44.702;10.622;2022-08-19T09:00:49;0.47;;;0.28;;
23730;SDS011;12046;44.702;10.622;2022-08-19T09:03:18;1.23;;;0.30;;
23730;SDS011;12046;44.702;10.622;2022-08-19T09:05:57;0.95;;;0.40;;
23730;SDS011;12046;44.702;10.622;2022-08-19T09:17:09;2.53;;;0.52;;
23730;SDS011;12046;44.702;10.622;2022-08-19T09:19:46;0.40;;;0.30;;
23730;SDS011;12046;44.702;10.622;2022-08-19T09:22:16;5.05;;;0.40;;
23730;SDS011;12046;44.702;10.622;2022-08-19T09:24:43;1.20;;;0.40;;
23730;SDS011;12046;44.702;10.622;2022-08-19T09:27:09;0.75;;;0.40;;
23730;SDS011;12046;44.702;10.622;2022-08-19T09:29:35;3.30;;;0.73;;
23730;SDS011;12046;44.702;10.622;2022-08-19T09:32:01;2.42;;;0.40;;
23730;SDS011;12046;44.702;10.622;2022-08-19T09:34:27;0.20;;;0.20;;
23730;SDS011;12046;44.702;10.622;2022-08-19T09:36:54;1.45;;;0.20;;
23730;SDS011;12046;44.702;10.622;2022-08-19T09:39:23;1.92;;;0.73;;
23730;SDS011;12046;44.702;10.622;2022-08-19T09:41:49;1.08;;;0.35;;
23730;SDS011;12046;44.702;10.622;2022-08-19T09:44:15;2.10;;;0.55;;
23730;SDS011;12046;44.702;10.622;2022-08-19T09:46:41;1.10;;;0.40;;
23730;SDS011;12046;44.702;10.622;2022-08-19T09:49:08;0.35;;;0.30;;
23730;SDS011;12046;44.702;10.622;2022-08-19T09:51:34;1.17;;;0.55;;
23730;SDS011;12046;44.702;10.622;2022-08-19T09:54:00;1.08;;;0.80;;
23730;SDS011;12046;44.702;10.622;2022-08-19T09:56:29;2.33;;;0.43;;
23730;SDS011;12046;44.702;10.622;2022-08-19T09:58:57;1.02;;;0.70;;
23730;SDS011;12046;44.702;10.622;2022-08-19T10:01:29;3.10;;;0.40;;
23730;SDS011;12046;44.702;10.622;2022-08-19T10:03:58;0.52;;;0.28;;
23730;SDS011;12046;44.702;10.622;2022-08-19T10:06:26;0.93;;;0.30;;
23730;SDS011;12046;44.702;10.622;2022-08-19T10:08:58;1.30;;;0.50;;
23730;SDS011;12046;44.702;10.622;2022-08-19T10:11:25;1.77;;;0.50;;
23730;SDS011;12046;44.702;10.622;2022-08-19T10:13:51;5.10;;;0.50;;
23730;SDS011;12046;44.702;10.622;2022-08-19T10:16:19;2.25;;;0.40;;
23730;SDS011;12046;44.702;10.622;2022-08-19T10:18:48;0.45;;;0.20;;
23730;SDS011;12046;44.702;10.622;2022-08-19T10:21:22;1.02;;;0.30;;
23730;SDS011;12046;44.702;10.622;2022-08-19T10:23:51;1.05;;;0.57;;
23730;SDS011;12046;44.702;10.622;2022-08-19T10:26:19;0.65;;;0.40;;
23730;SDS011;12046;44.702;10.622;2022-08-19T10:28:48;2.20;;;0.30;;
23730;SDS011;12046;44.702;10.622;2022-08-19T10:31:21;0.98;;;0.40;;
23730;SDS011;12046;44.702;10.622;2022-08-19T10:33:55;1.25;;;0.90;;
23730;SDS011;12046;44.702;10.622;2022-08-19T10:36:27;0.88;;;0.30;;
23730;SDS011;12046;44.702;10.622;2022-08-19T10:38:56;0.65;;;0.30;;
23730;SDS011;12046;44.702;10.622;2022-08-19T10:41:25;3.95;;;0.40;;
23730;SDS011;12046;44.702;10.622;2022-08-19T10:43:54;0.95;;;0.30;;
23730;SDS011;12046;44.702;10.622;2022-08-19T10:46:24;1.95;;;0.63;;
23730;SDS011;12046;44.702;10.622;2022-08-19T10:48:52;7.90;;;0.65;;
23730;SDS011;12046;44.702;10.622;2022-08-19T10:51:19;0.93;;;0.45;;
23730;SDS011;12046;44.702;10.622;2022-08-19T10:54:04;0.98;;;0.30;;
23730;SDS011;12046;44.702;10.622;2022-08-19T10:56:30;0.82;;;0.40;;
23730;SDS011;12046;44.702;10.622;2022-08-19T10:59:16;0.70;;;0.32;;
23730;SDS011;12046;44.702;10.622;2022-08-19T11:01:47;2.10;;;0.30;;
23730;SDS011;12046;44.702;10.622;2022-08-19T11:04:14;0.68;;;0.52;;
23730;SDS011;12046;44.702;10.622;2022-08-19T11:06:46;0.93;;;0.40;;
23730;SDS011;12046;44.702;10.622;2022-08-19T11:09:18;1.83;;;0.38;;
23730;SDS011;12046;44.702;10.622;2022-08-19T11:11:54;2.10;;;0.50;;
23730;SDS011;12046;44.702;10.622;2022-08-19T11:14:22;1.45;;;0.50;;
23730;SDS011;12046;44.702;10.622;2022-08-19T11:16:52;0.90;;;0.30;;
23730;SDS011;12046;44.702;10.622;2022-08-19T11:19:21;1.38;;;0.30;;
23730;SDS011;12046;44.702;10.622;2022-08-19T11:21:49;2.75;;;0.50;;
23730;SDS011;12046;44.702;10.622;2022-08-19T11:24:19;0.80;;;0.40;;
23730;SDS011;12046;44.702;10.622;2022-08-19T11:26:47;1.40;;;0.40;;
23730;SDS011;12046;44.702;10.622;2022-08-19T11:29:15;1.67;;;0.30;;
23730;SDS011;12046;44.702;10.622;2022-08-19T11:31:44;1.77;;;0.50;;
23730;SDS011;12046;44.702;10.622;2022-08-19T11:34:12;0.80;;;0.30;;
23730;SDS011;12046;44.702;10.622;2022-08-19T11:36:42;1.40;;;0.38;;
23730;SDS011;12046;44.702;10.622;2022-08-19T11:39:11;0.20;;;0.20;;
23730;SDS011;12046;44.702;10.622;2022-08-19T11:41:40;1.50;;;0.50;;
23730;SDS011;12046;44.702;10.622;2022-08-19T11:44:06;0.60;;;0.47;;
23730;SDS011;12046;44.702;10.622;2022-08-19T11:46:36;1.55;;;0.55;;
23730;SDS011;12046;44.702;10.622;2022-08-19T11:49:03;1.55;;;0.10;;
23730;SDS011;12046;44.702;10.622;2022-08-19T11:51:31;1.10;;;0.52;;
23730;SDS011;12046;44.702;10.622;2022-08-19T11:53:58;0.57;;;0.20;;
23730;SDS011;12046;44.702;10.622;2022-08-19T11:56:25;0.90;;;0.40;;
23730;SDS011;12046;44.702;10.622;2022-08-19T11:58:52;0.45;;;0.32;;
23730;SDS011;12046;44.702;10.622;2022-08-19T12:01:20;0.75;;;0.20;;
23730;SDS011;12046;44.702;10.622;2022-08-19T12:03:48;2.50;;;0.30;;
23730;SDS011;12046;44.702;10.622;2022-08-19T12:06:19;0.45;;;0.22;;
23730;SDS011;12046;44.702;10.622;2022-08-19T12:08:49;1.30;;;0.70;;
23730;SDS011;12046;44.702;10.622;2022-08-19T12:11:15;0.80;;;0.25;;
23730;SDS011;12046;44.702;10.622;2022-08-19T12:13:41;0.20;;;0.13;;
23730;SDS011;12046;44.702;10.622;2022-08-19T12:16:13;0.82;;;0.20;;
23730;SDS011;12046;44.702;10.622;2022-08-19T12:18:41;0.85;;;0.38;;
23730;SDS011;12046;44.702;10.622;2022-08-19T12:21:12;1.27;;;0.32;;
23730;SDS011;12046;44.702;10.622;2022-08-19T12:23:40;0.28;;;0.20;;
23730;SDS011;12046;44.702;10.622;2022-08-19T12:26:09;2.13;;;0.60;;
23730;SDS011;12046;44.702;10.622;2022-08-19T12:28:38;1.48;;;0.40;;
23730;SDS011;12046;44.702;10.622;2022-08-19T12:31:04;0.30;;;0.28;;
23730;SDS011;12046;44.702;10.622;2022-08-19T12:33:31;2.17;;;0.30;;
23730;SDS011;12046;44.702;10.622;2022-08-19T12:36:01;0.32;;;0.22;;
23730;SDS011;12046;44.702;10.622;2022-08-19T12:38:30;1.42;;;0.20;;
23730;SDS011;12046;44.702;10.622;2022-08-19T12:40:57;1.85;;;0.25;;
23730;SDS011;12046;44.702;10.622;2022-08-19T12:43:24;2.10;;;0.30;;
23730;SDS011;12046;44.702;10.622;2022-08-19T12:45:50;0.50;;;0.40;;
23730;SDS011;12046;44.702;10.622;2022-08-19T12:48:16;0.43;;;0.30;;
23730;SDS011;12046;44.702;10.622;2022-08-19T12:50:43;0.63;;;0.20;;
23730;SDS011;12046;44.702;10.622;2022-08-19T12:53:13;4.57;;;0.60;;
23730;SDS011;12046;44.702;10.622;2022-08-19T12:55:40;0.40;;;0.30;;
23730;SDS011;12046;44.702;10.622;2022-08-19T12:58:07;0.50;;;0.15;;
23730;SDS011;12046;44.702;10.622;2022-08-19T13:00:34;0.82;;;0.30;;
23730;SDS011;12046;44.702;10.622;2022-08-19T13:03:00;0.93;;;0.40;;
23730;SDS011;12046;44.702;10.622;2022-08-19T13:05:29;0.65;;;0.22;;
23730;SDS011;12046;44.702;10.622;2022-08-19T13:07:57;0.20;;;0.20;;
23730;SDS011;12046;44.702;10.622;2022-08-19T13:10:27;0.60;;;0.30;;
23730;SDS011;12046;44.702;10.622;2022-08-19T13:12:55;0.47;;;0.40;;
23730;SDS011;12046;44.702;10.622;2022-08-19T13:15:24;0.88;;;0.30;;
23730;SDS011;12046;44.702;10.622;2022-08-19T13:17:56;2.25;;;0.40;;
23730;SDS011;12046;44.702;10.622;2022-08-19T13:20:23;1.10;;;0.30;;
23730;SDS011;12046;44.702;10.622;2022-08-19T13:22:49;0.82;;;0.40;;
23730;SDS011;12046;44.702;10.622;2022-08-19T13:25:17;1.42;;;0.30;;
23730;SDS011;12046;44.702;10.622;2022-08-19T13:27:45;0.75;;;0.30;;
23730;SDS011;12046;44.702;10.622;2022-08-19T13:30:13;2.17;;;0.30;;
23730;SDS011;12046;44.702;10.622;2022-08-19T13:32:59;0.98;;;0.20;;
23730;SDS011;12046;44.702;10.622;2022-08-19T13:38:04;1.10;;;0.30;;
23730;SDS011;12046;44.702;10.622;2022-08-19T13:40:31;3.85;;;0.30;;
23730;SDS011;12046;44.702;10.622;2022-08-19T13:42:59;0.68;;;0.30;;
23730;SDS011;12046;44.702;10.622;2022-08-19T13:45:27;0.75;;;0.30;;
23730;SDS011;12046;44.702;10.622;2022-08-19T13:47:55;1.08;;;0.40;;
23730;SDS011;12046;44.702;10.622;2022-08-19T13:50:24;3.97;;;0.50;;
23730;SDS011;12046;44.702;10.622;2022-08-19T13:52:52;1.05;;;0.60;;
23730;SDS011;12046;44.702;10.622;2022-08-19T13:55:20;1.30;;;0.50;;
23730;SDS011;12046;44.702;10.622;2022-08-19T13:57:49;1.05;;;0.20;;
23730;SDS011;12046;44.702;10.622;2022-08-19T14:00:19;0.30;;;0.30;;
23730;SDS011;12046;44.702;10.622;2022-08-19T14:02:47;1.58;;;0.47;;
23730;SDS011;12046;44.702;10.622;2022-08-19T14:05:17;1.80;;;0.40;;
23730;SDS011;12046;44.702;10.622;2022-08-19T14:07:44;1.27;;;0.30;;
23730;SDS011;12046;44.702;10.622;2022-08-19T14:10:10;0.57;;;0.28;;
23730;SDS011;12046;44.702;10.622;2022-08-19T14:12:38;0.80;;;0.32;;
23730;SDS011;12046;44.702;10.622;2022-08-19T14:15:05;3.13;;;0.43;;
23730;SDS011;12046;44.702;10.622;2022-08-19T14:17:33;0.20;;;0.20;;
23730;SDS011;12046;44.702;10.622;2022-08-19T14:20:01;0.77;;;0.30;;
23730;SDS011;12046;44.702;10.622;2022-08-19T14:22:31;0.43;;;0.22;;
23730;SDS011;12046;44.702;10.622;2022-08-19T14:24:57;2.75;;;0.30;;
23730;SDS011;12046;44.702;10.622;2022-08-19T14:27:23;1.85;;;0.40;;
23730;SDS011;12046;44.702;10.622;2022-08-19T14:29:53;0.70;;;0.20;;
23730;SDS011;12046;44.702;10.622;2022-08-19T14:32:20;1.13;;;0.20;;
23730;SDS011;12046;44.702;10.622;2022-08-19T14:34:46;0.50;;;0.30;;
23730;SDS011;12046;44.702;10.622;2022-08-19T14:37:13;0.63;;;0.30;;
23730;SDS011;12046;44.702;10.622;2022-08-19T14:39:40;1.08;;;0.30;;
23730;SDS011;12046;44.702;10.622;2022-08-19T14:42:10;1.15;;;0.40;;
23730;SDS011;12046;44.702;10.622;2022-08-19T14:44:36;1.42;;;0.20;;
23730;SDS011;12046;44.702;10.622;2022-08-19T14:47:03;1.02;;;0.20;;
23730;SDS011;12046;44.702;10.622;2022-08-19T14:49:29;1.95;;;0.30;;
23730;SDS011;12046;44.702;10.622;2022-08-19T14:51:55;0.93;;;0.22;;
23730;SDS011;12046;44.702;10.622;2022-08-19T14:54:21;1.13;;;0.30;;